Terminal Aerodrome Forecast
Issued by NWS Huntsville, AL

Home | Current Version | Previous Version | Text Only | Print | Product List | Glossary On
Versions: 1 2 3 4 5 6 7 8 9 10 11 12 13 14 15 16 17 18 19 20 21 22 23 24 25 26 27 28 29 30 31 32 33 34 35
000
FTUS44 KHUN 262320
TAFMSL
TAF
KMSL 262320Z 2700/2724 34008KT P6SM BKN040 OVC050
     FM270200 36011KT P6SM BKN014 OVC025
     FM271600 04011KT P6SM FEW025 SCT250
     FM272100 03007KT P6SM OVC100=

USA.gov is the U.S. government's official web portal to all federal, state and local government web resources and services.